PWSweather.com
Personal Weather Stations
Station Observations
ACURITE34
Acu, San SebastianES 20018

AcuSan SebastianES 20018

Lat: 43.304, Lon: -2.016

Elevation: 54

Station Type: Acurite 5 + 1

Latest ConditionsUpdated 11:44:44 AM GMT+01:01 Sunday, Feb 17, 2019
Currently Today's Max Today's Min Today's Average
Temperature 67.3°F19.6°C 67.5°F19.7°C 60.6°F15.9°C 62.6°F17.0°C
Dew Point 16.5°F-8.6°C 22.6°F-5.2°C 8.1°F-13.3°C 14.0°F-10.0°C
Winds 13.9 mph S22.4 kmh S 23.3 mph -37.5 kmh - - 13.5 mph 21.7 kmh
Wind Gusts 17.7 mph28.5 kmh 31.1 mph50.1 kmh - -
Humidity 14% 21% 12% 15%
Pressure 30.18 in1022.0 mb 30.21 in1023.0 mb 30.17 in1021.7 mb -
Precipitation - 0.02 in0.5 mm - -
Hour Temp Dew Point Humidity Winds Wind Gusts Pressure Precip Precip Rate Daily Precip Total
11:44 AM 67.3°F19.6°C 16.5°F-8.6°C 14% 13.9 mph S22.4 kmh S 17.7 mph28.5 kmh 30.18 in1022.0 mb 0.01 in0.3 mm 0.00 in0.0 mm 0.02 in0.5 mm
11:39 AM 67.5°F19.7°C 16.5°F-8.6°C 14% 9.8 mph SSW15.8 kmh SSW 12.5 mph20.1 kmh 30.18 in1022.0 mb 0.01 in0.3 mm 0.00 in0.0 mm 0.02 in0.5 mm
11:34 AM 66.9°F19.4°C 16.2°F-8.8°C 14% 11.9 mph WSW19.2 kmh WSW 16.6 mph26.7 kmh 30.18 in1022.0 mb 0.01 in0.3 mm 0.00 in0.0 mm 0.02 in0.5 mm
11:29 AM 66.7°F19.3°C 14.4°F-9.8°C 13% 11.2 mph S18.0 kmh S 15.7 mph25.3 kmh 30.18 in1022.0 mb 0.01 in0.3 mm 0.00 in0.0 mm 0.02 in0.5 mm
11:23 AM 66.7°F19.3°C 14.4°F-9.8°C 13% 10.7 mph WSW17.2 kmh WSW 14.5 mph23.3 kmh 30.18 in1022.0 mb 0.01 in0.3 mm 0.00 in0.0 mm 0.02 in0.5 mm
11:18 AM 66.4°F19.1°C 14.0°F-10.0°C 13% 12.8 mph S20.6 kmh S 22.8 mph36.7 kmh 30.18 in1022.0 mb 0.01 in0.3 mm 0.00 in0.0 mm 0.02 in0.5 mm
11:13 AM 66.9°F19.4°C 14.5°F-9.7°C 13% 7.8 mph S12.6 kmh S 11.9 mph19.2 kmh 30.18 in1022.0 mb 0.01 in0.3 mm 0.12 in3.0 mm 0.02 in0.5 mm
11:08 AM 66.4°F19.1°C 14.0°F-10.0°C 13% 8.5 mph SE13.7 kmh SE 13.4 mph21.6 kmh 30.18 in1022.0 mb 0.00 in0.0 mm 0.00 in0.0 mm 0.01 in0.3 mm
11:03 AM 66.0°F18.9°C 13.8°F-10.1°C 13% 11.9 mph WSW19.2 kmh WSW 14.1 mph22.7 kmh 30.18 in1022.0 mb 0.00 in0.0 mm 0.00 in0.0 mm 0.01 in0.3 mm
10:58 AM 65.8°F18.8°C 13.6°F-10.2°C 13% 13.0 mph SSE20.9 kmh SSE 15.7 mph25.3 kmh 30.19 in1022.4 mb 0.00 in0.0 mm 0.00 in0.0 mm 0.01 in0.3 mm
10:53 AM 65.8°F18.8°C 13.6°F-10.2°C 13% 13.9 mph SSW22.4 kmh SSW 19.7 mph31.7 kmh 30.19 in1022.4 mb 0.00 in0.0 mm 0.00 in0.0 mm 0.01 in0.3 mm
10:48 AM 65.5°F18.6°C 13.3°F-10.4°C 13% 12.5 mph SSE20.1 kmh SSE 19.7 mph31.7 kmh 30.18 in1022.0 mb 0.00 in0.0 mm 0.00 in0.0 mm 0.01 in0.3 mm
10:43 AM 65.5°F18.6°C 11.5°F-11.4°C 12% 13.2 mph S21.2 kmh S 16.1 mph25.9 kmh 30.18 in1022.0 mb 0.00 in0.0 mm 0.00 in0.0 mm 0.01 in0.3 mm
10:38 AM 65.1°F18.4°C 11.3°F-11.5°C 12% 12.5 mph S20.1 kmh S 16.6 mph26.7 kmh 30.18 in1022.0 mb 0.00 in0.0 mm 0.00 in0.0 mm 0.01 in0.3 mm
10:32 AM 64.9°F18.3°C 11.1°F-11.6°C 12% 14.8 mph SSE23.8 kmh SSE 18.6 mph29.9 kmh 30.19 in1022.4 mb 0.00 in0.0 mm 0.00 in0.0 mm 0.01 in0.3 mm
10:27 AM 64.6°F18.1°C 10.8°F-11.8°C 12% 14.3 mph SSE23.0 kmh SSE 20.1 mph32.3 kmh 30.19 in1022.4 mb 0.00 in0.0 mm 0.00 in0.0 mm 0.01 in0.3 mm
10:22 AM 64.8°F18.2°C 12.7°F-10.7°C 13% 11.2 mph SSE18.0 kmh SSE 17.7 mph28.5 kmh 30.19 in1022.4 mb 0.00 in0.0 mm 0.00 in0.0 mm 0.01 in0.3 mm
10:17 AM 64.6°F18.1°C 12.6°F-10.8°C 13% 8.7 mph S14.0 kmh S 12.5 mph20.1 kmh 30.19 in1022.4 mb 0.00 in0.0 mm 0.00 in0.0 mm 0.01 in0.3 mm
10:12 AM 64.0°F17.8°C 10.4°F-12.0°C 12% 10.5 mph SSE16.9 kmh SSE 13.0 mph20.9 kmh 30.19 in1022.4 mb 0.00 in0.0 mm 0.00 in0.0 mm 0.01 in0.3 mm
10:06 AM 64.0°F17.8°C 10.4°F-12.0°C 12% 11.0 mph S17.7 kmh S 11.0 mph17.7 kmh 30.19 in1022.4 mb 0.00 in0.0 mm 0.00 in0.0 mm 0.01 in0.3 mm
10:01 AM 64.0°F17.8°C 10.4°F-12.0°C 12% 9.2 mph S14.8 kmh S 14.1 mph22.7 kmh 30.19 in1022.4 mb 0.00 in0.0 mm 0.00 in0.0 mm 0.01 in0.3 mm
09:56 AM 63.7°F17.6°C 10.0°F-12.2°C 12% 8.9 mph W14.3 kmh W 14.1 mph22.7 kmh 30.19 in1022.4 mb 0.00 in0.0 mm 0.00 in0.0 mm 0.01 in0.3 mm
09:51 AM 63.7°F17.6°C 10.0°F-12.2°C 12% 10.3 mph E16.6 kmh E 13.4 mph21.6 kmh 30.19 in1022.4 mb 0.00 in0.0 mm 0.00 in0.0 mm 0.01 in0.3 mm
09:46 AM 63.7°F17.6°C 10.0°F-12.2°C 12% 10.5 mph SSE16.9 kmh SSE 14.1 mph22.7 kmh 30.19 in1022.4 mb 0.00 in0.0 mm 0.00 in0.0 mm 0.01 in0.3 mm
09:41 AM 63.3°F17.4°C 9.9°F-12.3°C 12% 11.2 mph S18.0 kmh S 15.0 mph24.1 kmh 30.19 in1022.4 mb 0.01 in0.3 mm 0.00 in0.0 mm 0.01 in0.3 mm
09:36 AM 63.3°F17.4°C 9.9°F-12.3°C 12% 12.5 mph S20.1 kmh S 15.7 mph25.3 kmh 30.18 in1022.0 mb 0.02 in0.5 mm 0.00 in0.0 mm 0.01 in0.3 mm
09:30 AM 63.1°F17.3°C 9.7°F-12.4°C 12% 12.8 mph S20.6 kmh S 18.1 mph29.1 kmh 30.18 in1022.0 mb 0.03 in0.8 mm 0.00 in0.0 mm 0.01 in0.3 mm
09:25 AM 62.8°F17.1°C 9.3°F-12.6°C 12% 13.0 mph SSW20.9 kmh SSW 16.6 mph26.7 kmh 30.18 in1022.0 mb 0.04 in1.0 mm 0.00 in0.0 mm 0.01 in0.3 mm
09:20 AM 63.1°F17.3°C 9.7°F-12.4°C 12% 12.3 mph SSE19.8 kmh SSE 18.6 mph29.9 kmh 30.19 in1022.4 mb 0.04 in1.0 mm 0.00 in0.0 mm 0.01 in0.3 mm
09:15 AM 63.0°F17.2°C 9.5°F-12.5°C 12% 12.8 mph SSE20.6 kmh SSE 16.1 mph25.9 kmh 30.19 in1022.4 mb 0.05 in1.3 mm 0.00 in0.0 mm 0.01 in0.3 mm
09:10 AM 62.8°F17.1°C 9.3°F-12.6°C 12% 15.7 mph SE25.3 kmh SE 17.0 mph27.4 kmh 30.19 in1022.4 mb 0.09 in2.3 mm 0.00 in0.0 mm 0.01 in0.3 mm
09:05 AM 62.1°F16.7°C 8.8°F-12.9°C 12% 16.1 mph S25.9 kmh S 19.7 mph31.7 kmh 30.19 in1022.4 mb 0.11 in2.8 mm 0.00 in0.0 mm 0.01 in0.3 mm
09:00 AM 62.1°F16.7°C 8.8°F-12.9°C 12% 14.5 mph S23.3 kmh S 21.3 mph34.3 kmh 30.19 in1022.4 mb 0.11 in2.8 mm 0.00 in0.0 mm 0.01 in0.3 mm
08:55 AM 61.9°F16.6°C 8.6°F-13.0°C 12% 16.8 mph SE27.0 kmh SE 24.4 mph39.3 kmh 30.19 in1022.4 mb 0.11 in2.8 mm 0.00 in0.0 mm 0.01 in0.3 mm
08:50 AM 61.9°F16.6°C 8.6°F-13.0°C 12% 18.8 mph S30.3 kmh S 22.1 mph35.6 kmh 30.19 in1022.4 mb 0.11 in2.8 mm 0.00 in0.0 mm 0.01 in0.3 mm
08:45 AM 61.9°F16.6°C 8.6°F-13.0°C 12% 19.0 mph S30.6 kmh S 22.8 mph36.7 kmh 30.18 in1022.0 mb 0.11 in2.8 mm 0.12 in3.0 mm 0.01 in0.3 mm
08:40 AM 62.1°F16.7°C 8.8°F-12.9°C 12% 19.2 mph S30.9 kmh S 29.5 mph47.5 kmh 30.18 in1022.0 mb 0.10 in2.5 mm 0.10 in2.5 mm 0.47 in11.9 mm
08:34 AM 62.2°F16.8°C 9.0°F-12.8°C 12% 20.1 mph S32.3 kmh S 25.9 mph41.7 kmh 30.17 in1021.7 mb 0.09 in2.3 mm 0.24 in6.1 mm 0.46 in11.7 mm
08:29 AM 62.1°F16.7°C 8.8°F-12.9°C 12% 22.1 mph SSE35.6 kmh SSE 30.4 mph48.9 kmh 30.17 in1021.7 mb 0.07 in1.8 mm 0.00 in0.0 mm 0.44 in11.2 mm
08:24 AM 61.5°F16.4°C 8.4°F-13.1°C 12% 18.6 mph S29.9 kmh S 23.7 mph38.1 kmh 30.17 in1021.7 mb 0.07 in1.8 mm 0.00 in0.0 mm 0.44 in11.2 mm
08:19 AM 61.5°F16.4°C 8.4°F-13.1°C 12% 19.2 mph SSE30.9 kmh SSE 24.4 mph39.3 kmh 30.17 in1021.7 mb 0.07 in1.8 mm 0.12 in3.0 mm 0.44 in11.2 mm
08:14 AM 61.5°F16.4°C 8.4°F-13.1°C 12% 21.3 mph SSE34.3 kmh SSE 28.9 mph46.5 kmh 30.17 in1021.7 mb 0.06 in1.5 mm 0.48 in12.2 mm 0.43 in10.9 mm
08:09 AM 61.5°F16.4°C 8.4°F-13.1°C 12% 16.6 mph S26.7 kmh S 23.3 mph37.5 kmh 30.17 in1021.7 mb 0.02 in0.5 mm 0.24 in6.1 mm 0.39 in9.9 mm
08:04 AM 61.5°F16.4°C 8.4°F-13.1°C 12% 15.9 mph S25.6 kmh S 18.6 mph29.9 kmh 30.17 in1021.7 mb 0.00 in0.0 mm 0.00 in0.0 mm 0.37 in9.4 mm
07:59 AM 61.5°F16.4°C 8.4°F-13.1°C 12% 17.9 mph S28.8 kmh S 23.7 mph38.1 kmh 30.17 in1021.7 mb 0.00 in0.0 mm 0.00 in0.0 mm 0.37 in9.4 mm
07:54 AM 61.3°F16.3°C 8.2°F-13.2°C 12% 13.4 mph ESE21.6 kmh ESE 19.2 mph30.9 kmh 30.17 in1021.7 mb 0.00 in0.0 mm 0.00 in0.0 mm 0.37 in9.4 mm
07:49 AM 61.3°F16.3°C 8.2°F-13.2°C 12% 14.1 mph S22.7 kmh S 18.6 mph29.9 kmh 30.17 in1021.7 mb 0.00 in0.0 mm 0.00 in0.0 mm 0.37 in9.4 mm
07:44 AM 61.3°F16.3°C 8.2°F-13.2°C 12% 15.2 mph SE24.5 kmh SE 21.7 mph34.9 kmh 30.17 in1021.7 mb 0.00 in0.0 mm 0.00 in0.0 mm 0.37 in9.4 mm
07:39 AM 61.5°F16.4°C 8.4°F-13.1°C 12% 15.0 mph S24.1 kmh S 19.2 mph30.9 kmh 30.17 in1021.7 mb 0.00 in0.0 mm 0.00 in0.0 mm 0.37 in9.4 mm
07:34 AM 61.2°F16.2°C 8.1°F-13.3°C 12% 10.3 mph SSE16.6 kmh SSE 19.2 mph30.9 kmh 30.18 in1022.0 mb 0.00 in0.0 mm 0.00 in0.0 mm 0.37 in9.4 mm
07:29 AM 61.3°F16.3°C 8.2°F-13.2°C 12% 12.1 mph SE19.5 kmh SE 16.1 mph25.9 kmh 30.18 in1022.0 mb 0.00 in0.0 mm 0.00 in0.0 mm 0.37 in9.4 mm
07:24 AM 61.3°F16.3°C 8.2°F-13.2°C 12% 13.2 mph ESE21.2 kmh ESE 19.7 mph31.7 kmh 30.18 in1022.0 mb 0.00 in0.0 mm 0.00 in0.0 mm 0.37 in9.4 mm
07:18 AM 61.3°F16.3°C 8.2°F-13.2°C 12% 12.3 mph SSE19.8 kmh SSE 17.0 mph27.4 kmh 30.18 in1022.0 mb 0.00 in0.0 mm 0.00 in0.0 mm 0.37 in9.4 mm
07:13 AM 61.5°F16.4°C 8.4°F-13.1°C 12% 15.9 mph S25.6 kmh S 24.8 mph39.9 kmh 30.18 in1022.0 mb 0.00 in0.0 mm 0.00 in0.0 mm 0.37 in9.4 mm
07:08 AM 61.3°F16.3°C 8.2°F-13.2°C 12% 14.3 mph SSE23.0 kmh SSE 19.2 mph30.9 kmh 30.18 in1022.0 mb 0.00 in0.0 mm 0.00 in0.0 mm 0.37 in9.4 mm
07:03 AM 61.3°F16.3°C 8.2°F-13.2°C 12% 14.1 mph SSE22.7 kmh SSE 18.6 mph29.9 kmh 30.18 in1022.0 mb 0.00 in0.0 mm 0.00 in0.0 mm 0.37 in9.4 mm
06:58 AM 61.2°F16.2°C 8.1°F-13.3°C 12% 15.0 mph ESE24.1 kmh ESE 20.1 mph32.3 kmh 30.18 in1022.0 mb 0.28 in7.1 mm 0.00 in0.0 mm 0.37 in9.4 mm
06:53 AM 61.2°F16.2°C 8.1°F-13.3°C 12% 11.6 mph S18.7 kmh S 15.0 mph24.1 kmh 30.18 in1022.0 mb 0.28 in7.1 mm 0.00 in0.0 mm 0.37 in9.4 mm
06:48 AM 61.2°F16.2°C 8.1°F-13.3°C 12% 12.3 mph S19.8 kmh S 19.7 mph31.7 kmh 30.18 in1022.0 mb 0.28 in7.1 mm 0.00 in0.0 mm 0.37 in9.4 mm
06:42 AM 61.2°F16.2°C 8.1°F-13.3°C 12% 12.8 mph ESE20.6 kmh ESE 19.7 mph31.7 kmh 30.18 in1022.0 mb 0.28 in7.1 mm 0.00 in0.0 mm 0.37 in9.4 mm
06:37 AM 61.3°F16.3°C 8.2°F-13.2°C 12% 13.0 mph S20.9 kmh S 18.6 mph29.9 kmh 30.18 in1022.0 mb 0.28 in7.1 mm 0.00 in0.0 mm 0.37 in9.4 mm
06:32 AM 61.0°F16.1°C 9.7°F-12.4°C 13% 11.6 mph SE18.7 kmh SE 15.7 mph25.3 kmh 30.18 in1022.0 mb 0.28 in7.1 mm 0.00 in0.0 mm 0.37 in9.4 mm
06:27 AM 61.0°F16.1°C 9.7°F-12.4°C 13% 11.6 mph SSE18.7 kmh SSE 16.6 mph26.7 kmh 30.18 in1022.0 mb 0.28 in7.1 mm 0.00 in0.0 mm 0.37 in9.4 mm
06:22 AM 61.0°F16.1°C 9.7°F-12.4°C 13% 11.6 mph SSE18.7 kmh SSE 17.0 mph27.4 kmh 30.18 in1022.0 mb 0.28 in7.1 mm 0.00 in0.0 mm 0.37 in9.4 mm
06:17 AM 61.0°F16.1°C 9.7°F-12.4°C 13% 11.4 mph ESE18.3 kmh ESE 17.0 mph27.4 kmh 30.18 in1022.0 mb 0.28 in7.1 mm 0.00 in0.0 mm 0.37 in9.4 mm
06:12 AM 61.0°F16.1°C 9.7°F-12.4°C 13% 14.1 mph S22.7 kmh S 22.8 mph36.7 kmh 30.18 in1022.0 mb 0.28 in7.1 mm 0.00 in0.0 mm 0.37 in9.4 mm
06:07 AM 61.0°F16.1°C 11.5°F-11.4°C 14% 11.0 mph ESE17.7 kmh ESE 18.1 mph29.1 kmh 30.18 in1022.0 mb 0.28 in7.1 mm 0.00 in0.0 mm 0.37 in9.4 mm
06:02 AM 61.0°F16.1°C 11.5°F-11.4°C 14% 12.3 mph ESE19.8 kmh ESE 17.7 mph28.5 kmh 30.18 in1022.0 mb 0.28 in7.1 mm 0.31 in7.9 mm 0.37 in9.4 mm
05:57 AM 61.0°F16.1°C 11.5°F-11.4°C 14% 13.0 mph SSW20.9 kmh SSW 22.1 mph35.6 kmh 30.17 in1021.7 mb 0.00 in0.0 mm 0.00 in0.0 mm 0.09 in2.3 mm
05:52 AM 61.0°F16.1°C 11.5°F-11.4°C 14% 14.1 mph S22.7 kmh S 21.3 mph34.3 kmh 30.17 in1021.7 mb 0.00 in0.0 mm 0.00 in0.0 mm 0.09 in2.3 mm
05:47 AM 61.0°F16.1°C 11.5°F-11.4°C 14% 14.5 mph ESE23.3 kmh ESE 21.3 mph34.3 kmh 30.17 in1021.7 mb 0.00 in0.0 mm 0.00 in0.0 mm 0.09 in2.3 mm
05:42 AM 61.0°F16.1°C 12.9°F-10.6°C 15% 14.1 mph S22.7 kmh S 16.6 mph26.7 kmh 30.17 in1021.7 mb 0.00 in0.0 mm 0.00 in0.0 mm 0.09 in2.3 mm
05:36 AM 60.6°F15.9°C 12.7°F-10.7°C 15% 11.9 mph S19.2 kmh S 18.1 mph29.1 kmh 30.17 in1021.7 mb 0.00 in0.0 mm 0.00 in0.0 mm 0.09 in2.3 mm
05:31 AM 60.6°F15.9°C 12.7°F-10.7°C 15% 12.1 mph S19.5 kmh S 16.6 mph26.7 kmh 30.18 in1022.0 mb 0.00 in0.0 mm 0.00 in0.0 mm 0.09 in2.3 mm
05:26 AM 61.0°F16.1°C 12.9°F-10.6°C 15% 6.3 mph ESE10.1 kmh ESE 6.3 mph10.1 kmh 30.18 in1022.0 mb 0.00 in0.0 mm 0.00 in0.0 mm 0.09 in2.3 mm
05:21 AM 61.0°F16.1°C 12.9°F-10.6°C 15% 10.1 mph ESE16.3 kmh ESE 14.5 mph23.3 kmh 30.18 in1022.0 mb 0.00 in0.0 mm 0.00 in0.0 mm 0.09 in2.3 mm
05:16 AM 61.2°F16.2°C 13.1°F-10.5°C 15% 12.1 mph S19.5 kmh S 16.6 mph26.7 kmh 30.18 in1022.0 mb 0.00 in0.0 mm 0.00 in0.0 mm 0.09 in2.3 mm
05:11 AM 61.2°F16.2°C 13.1°F-10.5°C 15% 9.8 mph S15.8 kmh S 13.0 mph20.9 kmh 30.18 in1022.0 mb 0.00 in0.0 mm 0.00 in0.0 mm 0.09 in2.3 mm
05:06 AM 61.3°F16.3°C 13.3°F-10.4°C 15% 11.4 mph S18.3 kmh S 15.7 mph25.3 kmh 30.18 in1022.0 mb 0.00 in0.0 mm 0.00 in0.0 mm 0.09 in2.3 mm
04:56 AM 61.3°F16.3°C 13.3°F-10.4°C 15% 9.8 mph S15.8 kmh S 11.9 mph19.2 kmh 30.17 in1021.7 mb 0.00 in0.0 mm 0.00 in0.0 mm 0.09 in2.3 mm
04:50 AM 61.5°F16.4°C 13.5°F-10.3°C 15% 8.3 mph SSE13.4 kmh SSE 8.3 mph13.4 kmh 30.17 in1021.7 mb 0.00 in0.0 mm 0.00 in0.0 mm 0.09 in2.3 mm
04:45 AM 61.5°F16.4°C 13.5°F-10.3°C 15% 11.6 mph SSE18.7 kmh SSE 17.7 mph28.5 kmh 30.18 in1022.0 mb 0.00 in0.0 mm 0.00 in0.0 mm 0.09 in2.3 mm
04:40 AM 61.5°F16.4°C 13.5°F-10.3°C 15% 12.1 mph ESE19.5 kmh ESE 16.6 mph26.7 kmh 30.18 in1022.0 mb 0.00 in0.0 mm 0.00 in0.0 mm 0.09 in2.3 mm
04:35 AM 61.5°F16.4°C 13.5°F-10.3°C 15% 13.9 mph SSE22.4 kmh SSE 21.7 mph34.9 kmh 30.17 in1021.7 mb 0.00 in0.0 mm 0.00 in0.0 mm 0.09 in2.3 mm
04:30 AM 61.2°F16.2°C 14.5°F-9.7°C 16% 11.0 mph S17.7 kmh S 19.2 mph30.9 kmh 30.17 in1021.7 mb 0.00 in0.0 mm 0.00 in0.0 mm 0.09 in2.3 mm
04:25 AM 61.9°F16.6°C 15.3°F-9.3°C 16% 13.4 mph SSE21.6 kmh SSE 20.8 mph33.5 kmh 30.17 in1021.7 mb 0.00 in0.0 mm 0.00 in0.0 mm 0.09 in2.3 mm
04:20 AM 61.5°F16.4°C 14.9°F-9.5°C 16% 11.6 mph S18.7 kmh S 16.1 mph25.9 kmh 30.17 in1021.7 mb 0.00 in0.0 mm 0.00 in0.0 mm 0.09 in2.3 mm
04:15 AM 61.5°F16.4°C 14.9°F-9.5°C 16% 13.2 mph SSE21.2 kmh SSE 16.6 mph26.7 kmh 30.17 in1021.7 mb 0.00 in0.0 mm 0.00 in0.0 mm 0.09 in2.3 mm
04:10 AM 61.9°F16.6°C 15.3°F-9.3°C 16% 14.5 mph S23.3 kmh S 19.2 mph30.9 kmh 30.18 in1022.0 mb 0.00 in0.0 mm 0.00 in0.0 mm 0.09 in2.3 mm
04:05 AM 61.3°F16.3°C 14.7°F-9.6°C 16% 10.3 mph SSE16.6 kmh SSE 16.1 mph25.9 kmh 30.18 in1022.0 mb 0.00 in0.0 mm 0.00 in0.0 mm 0.09 in2.3 mm
04:00 AM 61.9°F16.6°C 15.3°F-9.3°C 16% 12.1 mph S19.5 kmh S 14.1 mph22.7 kmh 30.18 in1022.0 mb 0.00 in0.0 mm 0.00 in0.0 mm 0.09 in2.3 mm
03:55 AM 61.9°F16.6°C 15.3°F-9.3°C 16% 11.9 mph W19.2 kmh W 15.0 mph24.1 kmh 30.18 in1022.0 mb 0.00 in0.0 mm 0.00 in0.0 mm 0.09 in2.3 mm
03:50 AM 61.9°F16.6°C 15.3°F-9.3°C 16% 13.4 mph SSE21.6 kmh SSE 17.0 mph27.4 kmh 30.18 in1022.0 mb 0.00 in0.0 mm 0.00 in0.0 mm 0.09 in2.3 mm
03:44 AM 61.9°F16.6°C 16.5°F-8.6°C 17% 12.8 mph SSE20.6 kmh SSE 17.7 mph28.5 kmh 30.18 in1022.0 mb 0.00 in0.0 mm 0.00 in0.0 mm 0.09 in2.3 mm
03:39 AM 61.9°F16.6°C 16.5°F-8.6°C 17% 11.4 mph S18.3 kmh S 15.0 mph24.1 kmh 30.18 in1022.0 mb 0.00 in0.0 mm 0.00 in0.0 mm 0.09 in2.3 mm
03:34 AM 61.9°F16.6°C 16.5°F-8.6°C 17% 16.1 mph S25.9 kmh S 18.6 mph29.9 kmh 30.19 in1022.4 mb 0.00 in0.0 mm 0.00 in0.0 mm 0.09 in2.3 mm
03:29 AM 62.1°F16.7°C 16.7°F-8.5°C 17% 15.2 mph SSE24.5 kmh SSE 23.7 mph38.1 kmh 30.19 in1022.4 mb 0.00 in0.0 mm 0.00 in0.0 mm 0.09 in2.3 mm
03:24 AM 62.1°F16.7°C 16.7°F-8.5°C 17% 14.1 mph SSE22.7 kmh SSE 18.6 mph29.9 kmh 30.19 in1022.4 mb 0.00 in0.0 mm 0.00 in0.0 mm 0.09 in2.3 mm
03:19 AM 62.1°F16.7°C 16.7°F-8.5°C 17% 13.2 mph S21.2 kmh S 18.1 mph29.1 kmh 30.19 in1022.4 mb 0.00 in0.0 mm 0.00 in0.0 mm 0.09 in2.3 mm
03:13 AM 62.2°F16.8°C 16.9°F-8.4°C 17% 14.3 mph SSE23.0 kmh SSE 21.7 mph34.9 kmh 30.19 in1022.4 mb 0.01 in0.3 mm 0.00 in0.0 mm 0.09 in2.3 mm
03:08 AM 62.4°F16.9°C 17.1°F-8.3°C 17% 15.7 mph S25.3 kmh S 21.7 mph34.9 kmh 30.18 in1022.0 mb 0.01 in0.3 mm 0.00 in0.0 mm 0.09 in2.3 mm
03:03 AM 61.9°F16.6°C 18.0°F-7.8°C 18% 10.3 mph S16.6 kmh S 14.1 mph22.7 kmh 30.18 in1022.0 mb 0.01 in0.3 mm 0.00 in0.0 mm 0.09 in2.3 mm
02:58 AM 62.1°F16.7°C 19.2°F-7.1°C 19% 9.4 mph ESE15.1 kmh ESE 9.4 mph15.1 kmh 30.19 in1022.4 mb 0.01 in0.3 mm 0.00 in0.0 mm 0.09 in2.3 mm
02:53 AM 62.1°F16.7°C 19.2°F-7.1°C 19% 11.9 mph ESE19.2 kmh ESE 19.7 mph31.7 kmh 30.19 in1022.4 mb 0.01 in0.3 mm 0.00 in0.0 mm 0.09 in2.3 mm
02:47 AM 62.4°F16.9°C 19.6°F-6.9°C 19% 15.7 mph SSE25.3 kmh SSE 25.3 mph40.7 kmh 30.19 in1022.4 mb 0.01 in0.3 mm 0.00 in0.0 mm 0.09 in2.3 mm
02:42 AM 62.4°F16.9°C 19.6°F-6.9°C 19% 15.7 mph SE25.3 kmh SE 21.3 mph34.3 kmh 30.19 in1022.4 mb 0.01 in0.3 mm 0.00 in0.0 mm 0.09 in2.3 mm
02:37 AM 62.8°F17.1°C 19.9°F-6.7°C 19% 17.7 mph SE28.5 kmh SE 25.3 mph40.7 kmh 30.19 in1022.4 mb 0.01 in0.3 mm 0.00 in0.0 mm 0.09 in2.3 mm
02:32 AM 62.8°F17.1°C 19.9°F-6.7°C 19% 16.1 mph SSE25.9 kmh SSE 26.8 mph43.1 kmh 30.19 in1022.4 mb 0.02 in0.5 mm 0.00 in0.0 mm 0.09 in2.3 mm
02:27 AM 62.4°F16.9°C 19.6°F-6.9°C 19% 15.0 mph SE24.1 kmh SE 26.8 mph43.1 kmh 30.19 in1022.4 mb 0.08 in2.0 mm 0.00 in0.0 mm 0.09 in2.3 mm
02:22 AM 62.8°F17.1°C 19.9°F-6.7°C 19% 20.8 mph SSE33.5 kmh SSE 31.1 mph50.1 kmh 30.20 in1022.7 mb 0.09 in2.3 mm 0.12 in3.0 mm 0.09 in2.3 mm
02:17 AM 62.8°F17.1°C 21.0°F-6.1°C 20% 19.0 mph S30.6 kmh S 29.5 mph47.5 kmh 30.20 in1022.7 mb 0.08 in2.0 mm 0.00 in0.0 mm 0.08 in2.0 mm
02:12 AM 62.8°F17.1°C 21.0°F-6.1°C 20% 16.6 mph ESE26.7 kmh ESE 29.5 mph47.5 kmh 30.20 in1022.7 mb 0.08 in2.0 mm 0.00 in0.0 mm 0.08 in2.0 mm
02:07 AM 63.0°F17.2°C 21.2°F-6.0°C 20% 21.7 mph S34.9 kmh S 29.5 mph47.5 kmh 30.20 in1022.7 mb 0.08 in2.0 mm 0.00 in0.0 mm 0.08 in2.0 mm
02:02 AM 63.0°F17.2°C 21.2°F-6.0°C 20% 16.8 mph SSE27.0 kmh SSE 21.3 mph34.3 kmh 30.20 in1022.7 mb 0.08 in2.0 mm 0.00 in0.0 mm 0.08 in2.0 mm
01:56 AM 63.1°F17.3°C 21.4°F-5.9°C 20% 17.0 mph E27.4 kmh E 23.3 mph37.5 kmh 30.20 in1022.7 mb 0.08 in2.0 mm 0.00 in0.0 mm 0.08 in2.0 mm
01:51 AM 63.3°F17.4°C 21.6°F-5.8°C 20% 19.2 mph S30.9 kmh S 25.9 mph41.7 kmh 30.20 in1022.7 mb 0.08 in2.0 mm 0.00 in0.0 mm 0.08 in2.0 mm
01:46 AM 63.1°F17.3°C 22.6°F-5.2°C 21% 16.1 mph SE25.9 kmh SE 22.1 mph35.6 kmh 30.20 in1022.7 mb 0.08 in2.0 mm 0.00 in0.0 mm 0.08 in2.0 mm
01:41 AM 63.1°F17.3°C 22.6°F-5.2°C 21% 16.1 mph SSE25.9 kmh SSE 26.8 mph43.1 kmh 30.20 in1022.7 mb 0.08 in2.0 mm 0.00 in0.0 mm 0.08 in2.0 mm
01:36 AM 63.0°F17.2°C 22.5°F-5.3°C 21% 15.4 mph SSE24.8 kmh SSE 26.8 mph43.1 kmh 30.20 in1022.7 mb 0.08 in2.0 mm 0.84 in21.3 mm 0.08 in2.0 mm
01:31 AM 63.1°F17.3°C 22.6°F-5.2°C 21% 23.3 mph SSE37.5 kmh SSE 25.3 mph40.7 kmh 30.20 in1022.7 mb 0.01 in0.3 mm 0.00 in0.0 mm 0.07 in1.8 mm
01:25 AM 63.3°F17.4°C 22.6°F-5.2°C 21% 20.6 mph S33.2 kmh S 24.4 mph39.3 kmh 30.20 in1022.7 mb 0.01 in0.3 mm 0.12 in3.0 mm 0.01 in0.3 mm
01:20 AM 63.1°F17.3°C 22.6°F-5.2°C 21% 18.1 mph SSE29.1 kmh SSE 25.3 mph40.7 kmh 30.20 in1022.7 mb 0.00 in0.0 mm 0.00 in0.0 mm 0.00 in0.0 mm
01:15 AM 62.8°F17.1°C 22.3°F-5.4°C 21% 16.3 mph S26.2 kmh S 22.1 mph35.6 kmh 30.20 in1022.7 mb 0.00 in0.0 mm 0.00 in0.0 mm 0.00 in0.0 mm
01:10 AM 63.0°F17.2°C 21.2°F-6.0°C 20% 15.2 mph ESE24.5 kmh ESE 20.1 mph32.3 kmh 30.20 in1022.7 mb 0.00 in0.0 mm 0.00 in0.0 mm 0.00 in0.0 mm
01:05 AM 62.8°F17.1°C 21.0°F-6.1°C 20% 15.4 mph S24.8 kmh S 21.3 mph34.3 kmh 30.20 in1022.7 mb 0.00 in0.0 mm 0.00 in0.0 mm 0.00 in0.0 mm
01:00 AM 63.0°F17.2°C 21.2°F-6.0°C 20% 15.0 mph SE24.1 kmh SE 19.7 mph31.7 kmh 30.20 in1022.7 mb 0.00 in0.0 mm 0.00 in0.0 mm 0.00 in0.0 mm
12:55 AM 63.0°F17.2°C 21.2°F-6.0°C 20% 13.9 mph SE22.4 kmh SE 17.7 mph28.5 kmh 30.21 in1023.0 mb 0.00 in0.0 mm 0.00 in0.0 mm 0.00 in0.0 mm
12:50 AM 62.8°F17.1°C 21.0°F-6.1°C 20% 12.1 mph E19.5 kmh E 18.1 mph29.1 kmh 30.21 in1023.0 mb 0.00 in0.0 mm 0.00 in0.0 mm 0.00 in0.0 mm
12:45 AM 62.8°F17.1°C 21.0°F-6.1°C 20% 13.4 mph SW21.6 kmh SW 19.7 mph31.7 kmh 30.21 in1023.0 mb 0.00 in0.0 mm 0.00 in0.0 mm 0.00 in0.0 mm
12:40 AM 62.4°F16.9°C 20.8°F-6.2°C 20% 7.2 mph S11.6 kmh S 9.8 mph15.8 kmh 30.21 in1023.0 mb 0.00 in0.0 mm 0.00 in0.0 mm 0.00 in0.0 mm
12:35 AM 62.8°F17.1°C 21.0°F-6.1°C 20% 6.9 mph SSE11.1 kmh SSE 11.4 mph18.3 kmh 30.21 in1023.0 mb 0.00 in0.0 mm 0.00 in0.0 mm 0.00 in0.0 mm
12:30 AM 62.4°F16.9°C 20.8°F-6.2°C 20% 6.5 mph SSE10.5 kmh SSE 8.3 mph13.4 kmh 30.21 in1023.0 mb 0.00 in0.0 mm 0.00 in0.0 mm 0.00 in0.0 mm
12:25 AM 62.8°F17.1°C 21.0°F-6.1°C 20% 8.1 mph ESE13.0 kmh ESE 11.4 mph18.3 kmh 30.21 in1023.0 mb 0.00 in0.0 mm 0.00 in0.0 mm 0.00 in0.0 mm
12:20 AM 63.0°F17.2°C 21.2°F-6.0°C 20% 8.1 mph S13.0 kmh S 13.4 mph21.6 kmh 30.21 in1023.0 mb 0.00 in0.0 mm 0.00 in0.0 mm 0.00 in0.0 mm
12:15 AM 62.8°F17.1°C 21.0°F-6.1°C 20% 9.2 mph SSE14.8 kmh SSE 17.7 mph28.5 kmh 30.21 in1023.0 mb 0.00 in0.0 mm 0.00 in0.0 mm 0.00 in0.0 mm
12:09 AM 62.8°F17.1°C 19.9°F-6.7°C 19% 9.2 mph SSW14.8 kmh SSW 14.1 mph22.7 kmh 30.21 in1023.0 mb 0.00 in0.0 mm 0.00 in0.0 mm 0.00 in0.0 mm
12:04 AM 62.8°F17.1°C 19.9°F-6.7°C 19% 9.8 mph SSW15.8 kmh SSW 15.0 mph24.1 kmh 30.21 in1023.0 mb 0.00 in0.0 mm 0.00 in0.0 mm 0.00 in0.0 mm